METAR Data
IDs: Format: Raw Decoded Include TAF

Data at: 1041 UTC 22 Jan 2022

K2D5 221035Z AUTO 29008KT 10SM SCT013 SCT023 BKN037 M19/M22 A3025 RMK AO2
K2D5 221015Z AUTO 29007G12KT 10SM SCT013 SCT025 BKN034 M17/M21 A3025 RMK AO2
K2D5 220955Z AUTO 31011KT 10SM FEW025 FEW031 SCT037 M17/M20 A3025 RMK AO2
K2D5 220935Z AUTO 31012KT 10SM FEW038 FEW044 M16/M20 A3025 RMK AO2
K2D5 220915Z AUTO 31011KT 10SM FEW046 M16/M20 A3025 RMK AO2
K2D5 220855Z AUTO 31013KT 10SM FEW028 FEW036 SCT044 M16/M19 A3024 RMK AO2
K2D5 220835Z AUTO 32018KT 10SM FEW042 FEW050 M15/M19 A3022 RMK AO2
K2D5 220815Z AUTO 32021KT 9SM FEW050 M15/M19 A3021 RMK AO2
K2D5 220755Z AUTO 32017G23KT 10SM FEW043 FEW049 M15/M18 A3021 RMK AO2
K2D5 220735Z AUTO 32017G23KT 10SM FEW025 FEW035 SCT045 M14/M18 A3020 RMK AO2
K2D5 220715Z AUTO 32019KT 9SM FEW015 SCT034 BKN044 M14/M18 A3019 RMK AO2
K2D5 220655Z AUTO 32019G27KT 4SM HZ SCT015 BKN022 BKN039 M13/M17 A3018 RMK AO2
K2D5 220635Z AUTO 33022G31KT 2SM -SN BKN014 OVC021 M13/M16 A3018 RMK AO2
K2D5 220615Z AUTO 31017G23KT 6SM -SN BKN015 OVC024 M11/M15 A3017 RMK AO2
K2D5 220555Z AUTO 31024KT 9SM BKN015 BKN019 BKN025 M11/M14 A3015 RMK AO2
K2D5 220535Z AUTO 31023G28KT 9SM FEW014 M10/M14 A3013 RMK AO2
K2D5 220515Z AUTO 31024G31KT 5SM HZ FEW019 M10/M13 A3013 RMK AO2
K2D5 220455Z AUTO 31024G30KT 8SM FEW014 BKN021 BKN027 M09/M12 A3011 RMK AO2
K2D5 220435Z AUTO 31020G28KT 7SM SCT022 BKN028 BKN035 M08/M12 A3010 RMK AO2
K2D5 220415Z AUTO 31021G31KT 8SM FEW022 SCT028 SCT034 M08/M12 A3009 RMK AO2
K2D5 220355Z AUTO 31022G28KT 5SM HZ FEW019 BKN025 BKN029 M08/M11 A3008 RMK AO2
K2D5 220335Z AUTO 31023G29KT 8SM BKN025 OVC036 M07/M10 A3007 RMK AO2
K2D5 220315Z AUTO 31024G30KT 3SM HZ OVC036 M06/M09 A3005 RMK AO2
K2D5 220255Z AUTO 32019G31KT 2SM -UP OVC039 M05/M07 A3006 RMK AO2
K2D5 220235Z AUTO 31021G29KT 3SM -UP OVC042 M04/M07 A3004 RMK AO2
K2D5 220215Z AUTO 31022KT 5SM HZ FEW033 OVC043 M04/M07 A3003 RMK AO2
K2D5 220155Z AUTO 31021G26KT 8SM OVC038 M03/M06 A3002 RMK AO2
K2D5 220135Z AUTO 31023G28KT 2SM -UP FEW020 SCT027 OVC037 M03/M05 A3002 RMK AO2 VIS 1 1/4V3
K2D5 220115Z AUTO 32016G21KT 9SM SCT018 BKN024 OVC037 M03/M04 A3002 RMK AO2
K2D5 220055Z AUTO 32019KT 6SM BR FEW012 SCT018 BKN024 M02/M04 A3000 RMK AO2
K2D5 220035Z AUTO 30017G24KT 7SM FEW015 SCT032 OVC048 M01/M04 A2999 RMK AO2
K2D5 220015Z AUTO 31015G21KT 4SM -RA FEW016 BKN024 OVC032 M01/M02 A2998 RMK AO2
K2D5 212355Z AUTO 32017G24KT 4SM -UP SCT024 BKN028 OVC038 M01/M02 A2997 RMK AO2
K2D5 212335Z AUTO 30023G28KT 3SM HZ FEW028 SCT038 OVC047 00/M02 A2995 RMK AO2
K2D5 212315Z AUTO 30023G30KT 2SM BR BKN048 OVC055 00/M02 A2994 RMK AO2 VIS 1 1/4V4
K2D5 212255Z AUTO 29030KT 3SM -UP BKN050 OVC055 01/M02 A2992 RMK AO2
K2D5 212235Z AUTO 28021G27KT 10SM OVC048 02/M02 A2991 RMK AO2
K2D5 212215Z AUTO 28021KT 10SM OVC050 02/M01 A2991 RMK AO2
K2D5 212155Z AUTO 28018G23KT 10SM OVC050 01/M01 A2990 RMK AO2
K2D5 212135Z AUTO 24019G24KT 9SM SCT039 BKN049 OVC055 M00/M01 A2990 RMK AO2
K2D5 212115Z AUTO 21014KT 10SM SCT028 BKN040 OVC055 M04/M04 A2989 RMK AO2
K2D5 212055Z AUTO 20016KT 9SM BKN029 OVC034 M05/M05 A2988 RMK AO2
K2D5 212035Z AUTO 20018KT 9SM BKN027 BKN032 OVC042 M06/M06 A2988 RMK AO2
K2D5 212015Z AUTO 19014KT 9SM FEW032 OVC043 M06/M07 A2988 RMK AO2
K2D5 211955Z AUTO 20017KT 9SM SCT044 OVC050 M07/M08 A2989 RMK AO2
K2D5 211935Z AUTO 20020KT 9SM FEW031 OVC048 M07/M08 A2988 RMK AO2
K2D5 211915Z AUTO 20015KT 9SM FEW017 OVC045 M08/M09 A2989 RMK AO2
K2D5 211855Z AUTO 20018KT 9SM BKN018 OVC045 M08/M09 A2989 RMK AO2
K2D5 211835Z AUTO 20018KT 4SM BR OVC018 M09/M10 A2989 RMK AO2
K2D5 211815Z AUTO 20018KT 3SM BR FEW006 OVC014 M09/M10 A2989 RMK AO2
K2D5 211755Z AUTO 19021G29KT 1 3/4SM BR SCT006 OVC013 M10/M11 A2989 RMK AO2
K2D5 211735Z AUTO 20021KT 1SM BR OVC016 M10/M11 A2990 RMK AO2
K2D5 211715Z AUTO 20022G28KT 1/2SM -SN OVC019 M10/M11 A2990 RMK AO2
K2D5 211655Z AUTO 20023G29KT 1/2SM -SN OVC021 M11/M12 A2990 RMK AO2
K2D5 211635Z AUTO 20024G29KT 1/4SM -SN BKN003 BKN023 M11/M12 A2989 RMK AO2
K2D5 211615Z AUTO 20025G31KT 1/4SM -SN OVC003 M11/M13 A2989 RMK AO2
K2D5 211555Z AUTO 20026G34KT 1/4SM -SN BKN003 BKN020 M12/M13 A2988 RMK AO2
K2D5 211535Z AUTO 20027G33KT 1/4SM -SN BKN021 BKN027 BKN032 M12/M14 A2988 RMK AO2
K2D5 211515Z AUTO 19029G35KT 1/4SM -SN OVC021 M12/M14 A2987 RMK AO2
K2D5 211455Z AUTO 20027G34KT 2SM -SN BKN020 BKN034 OVC047 M11/M15 A2988 RMK AO2
K2D5 211435Z AUTO 19027G37KT 2SM -SN SCT046 BKN060 OVC075 M12/M15 A2988 RMK AO2
K2D5 211415Z AUTO 19030G36KT 1 3/4SM -SN SCT060 BKN075 OVC095 M12/M15 A2987 RMK AO2
K2D5 211355Z AUTO 19029G34KT 2 1/2SM -SN SCT070 BKN090 BKN110 M12/M16 A2988 RMK AO2
K2D5 211335Z AUTO 19024G31KT 4SM HZ BKN110 M12/M16 A2990 RMK AO2
K2D5 211315Z AUTO 19025G33KT 2SM -SN SCT120 M12/M16 A2989 RMK AO2
K2D5 211255Z AUTO 19026G33KT 5SM -SN CLR M12/M16 A2989 RMK AO2
K2D5 211235Z AUTO 19023G30KT 10SM CLR M12/M17 A2990 RMK AO2
K2D5 211215Z AUTO 18024KT 10SM CLR M13/M17 A2991 RMK AO2
K2D5 211155Z AUTO 18023G29KT 10SM CLR M13/M18 A2992 RMK AO2
K2D5 211135Z AUTO 18024G33KT 10SM CLR M13/M18 A2994 RMK AO2
K2D5 211115Z AUTO 19021G28KT 10SM CLR M13/M18 A2996 RMK AO2
K2D5 211055Z AUTO 19022G29KT 10SM CLR M13/M18 A2998 RMK AO2
K2D5 211035Z AUTO 19025G34KT 10SM CLR M13/M19 A2998 RMK AO2
K2D5 211015Z AUTO 19024G30KT 10SM CLR M14/M19 A2999 RMK AO2
K2D5 210955Z AUTO 18023G29KT 10SM CLR M14/M19 A3000 RMK AO2
K2D5 210935Z AUTO 18024KT 10SM CLR M14/M19 A3001 RMK AO2
K2D5 210915Z AUTO 18023G31KT 10SM CLR M14/M19 A3003 RMK AO2
K2D5 210855Z AUTO 19022G28KT 10SM CLR M14/M19 A3005 RMK AO2
K2D5 210835Z AUTO 18023KT 10SM CLR M14/M19 A3006 RMK AO2
K2D5 210815Z AUTO 18023KT 10SM CLR M14/M19 A3006 RMK AO2
K2D5 210755Z AUTO 18021G29KT 10SM CLR M14/M20 A3006 RMK AO2
K2D5 210735Z AUTO 18021G27KT 10SM CLR M14/M20 A3007 RMK AO2
K2D5 210715Z AUTO 18022KT 10SM CLR M15/M20 A3009 RMK AO2
K2D5 210655Z AUTO 18022KT 10SM CLR M15/M20 A3010 RMK AO2
K2D5 210635Z AUTO 18021G27KT 10SM CLR M15/M20 A3011 RMK AO2
K2D5 210615Z AUTO 17023KT 10SM CLR M15/M21 A3012 RMK AO2
K2D5 210555Z AUTO 17022KT 10SM CLR M16/M21 A3014 RMK AO2
K2D5 210535Z AUTO 17018KT 10SM CLR M16/M21 A3016 RMK AO2
K2D5 210515Z AUTO 17018G24KT 10SM FEW042 M16/M22 A3018 RMK AO2
K2D5 210455Z AUTO 17017KT 10SM CLR M18/M23 A3019 RMK AO2
K2D5 210435Z AUTO 17013KT 10SM CLR M19/M23 A3021 RMK AO2
K2D5 210355Z AUTO 16015KT 10SM FEW044 M19/M23 A3023 RMK AO2
K2D5 210335Z AUTO 17014KT 10SM CLR M19/M23 A3025 RMK AO2
K2D5 210155Z AUTO 16012KT 10SM CLR M22/M25 A3031 RMK AO2
K2D5 210135Z AUTO 16011KT 10SM CLR M23/M26 A3032 RMK AO2
K2D5 210115Z AUTO 15012KT 10SM CLR M22/M25 A3033 RMK AO2
K2D5 210055Z AUTO 15014KT 10SM CLR M21/M24 A3034 RMK AO2
K2D5 210035Z AUTO 15011KT 10SM CLR M21/M24 A3035 RMK AO2
K2D5 210015Z AUTO 15011KT 10SM CLR M22/M25 A3035 RMK AO2
K2D5 202355Z AUTO 14009KT 10SM CLR M22/M25 A3037 RMK AO2
K2D5 202335Z AUTO 14011KT 10SM CLR M21/M24 A3037 RMK AO2
K2D5 202315Z AUTO 14009KT 10SM CLR M20/M23 A3040 RMK AO2
K2D5 202255Z AUTO 14010KT 10SM CLR M19/M23 A3041 RMK AO2